createdAt,value
2022-10-31T00:02:35.461Z,4.73
2022-10-31T00:07:20.829Z,4.88
2022-10-31T00:12:06.470Z,6.82
2022-10-31T00:16:54.039Z,12.18
2022-10-31T00:21:39.647Z,14.07
2022-10-31T00:26:24.678Z,13.73
2022-10-31T00:31:11.550Z,12.55
2022-10-31T00:35:59.639Z,14.00
2022-10-31T00:40:44.923Z,13.68
2022-10-31T00:45:29.882Z,11.02
2022-10-31T00:50:15.148Z,8.18
2022-10-31T00:55:02.854Z,8.70
2022-10-31T00:59:48.084Z,8.57
2022-10-31T01:04:33.062Z,8.38
2022-10-31T01:09:18.402Z,8.80
2022-10-31T01:14:06.154Z,8.57
2022-10-31T01:18:51.428Z,8.00
2022-10-31T01:23:36.796Z,7.28
2022-10-31T01:28:22.164Z,6.45
2022-10-31T01:33:09.822Z,7.25
2022-10-31T01:37:55.077Z,7.28
2022-10-31T01:42:40.075Z,7.95
2022-10-31T01:47:39.055Z,8.95
2022-10-31T01:52:31.232Z,8.07
2022-10-31T01:57:18.513Z,8.75
2022-10-31T02:02:03.855Z,8.68
2022-10-31T02:06:53.936Z,7.80
2022-10-31T02:11:42.477Z,7.88
2022-10-31T02:16:27.883Z,7.50
2022-10-31T02:21:20.888Z,6.53
2022-10-31T02:26:44.154Z,7.32
2022-10-31T02:31:38.979Z,6.20
2022-10-31T02:36:30.610Z,5.78
2022-10-31T02:41:26.512Z,6.22
2022-10-31T02:46:18.132Z,5.72
2022-10-31T02:51:08.239Z,5.05
2022-10-31T02:56:03.175Z,5.10
2022-10-31T03:00:59.451Z,5.10
2022-10-31T03:05:59.655Z,5.47
2022-10-31T03:10:51.235Z,5.63
2022-10-31T03:15:40.313Z,4.93
2022-10-31T03:20:31.773Z,5.75
2022-10-31T03:25:17.943Z,5.17
2022-10-31T03:30:09.486Z,4.72
2022-10-31T03:34:57.848Z,5.33
2022-10-31T03:39:45.735Z,5.85
2022-10-31T03:44:33.335Z,6.20
2022-10-31T03:49:21.522Z,5.30
2022-10-31T03:54:12.931Z,5.75
2022-10-31T03:59:04.714Z,6.03
2022-10-31T04:03:50.217Z,6.38
2022-10-31T04:08:43.264Z,5.75
2022-10-31T04:13:33.060Z,6.43
2022-10-31T04:18:18.556Z,7.80
2022-10-31T04:23:04.036Z,8.38
2022-10-31T04:27:51.945Z,9.30
2022-10-31T04:32:36.955Z,10.20
2022-10-31T04:37:22.226Z,9.90
2022-10-31T04:42:07.520Z,10.23
2022-10-31T04:46:55.411Z,12.20
2022-10-31T04:51:40.475Z,12.88
2022-10-31T04:56:25.941Z,15.05
2022-10-31T05:01:11.031Z,14.52
2022-10-31T05:05:59.005Z,14.27
2022-10-31T05:10:44.291Z,15.18
2022-10-31T05:15:31.185Z,15.50
2022-10-31T05:20:17.878Z,14.88
2022-10-31T05:25:05.800Z,16.45
2022-10-31T05:29:50.864Z,16.08
2022-10-31T05:34:36.176Z,14.75
2022-10-31T05:39:21.859Z,14.65
2022-10-31T05:44:09.898Z,14.93
2022-10-31T05:48:57.520Z,13.95
2022-10-31T05:53:45.319Z,13.40
2022-10-31T05:58:30.304Z,14.75
2022-10-31T06:03:18.188Z,13.32
2022-10-31T06:08:03.682Z,13.27
2022-10-31T06:12:49.314Z,13.38
2022-10-31T06:17:34.324Z,13.32
2022-10-31T06:22:22.191Z,12.70
2022-10-31T06:27:07.507Z,13.02
2022-10-31T06:31:56.088Z,13.43
2022-10-31T06:36:41.046Z,12.98
2022-10-31T06:41:28.922Z,14.20
2022-10-31T06:46:13.886Z,12.18
2022-10-31T06:51:01.807Z,12.73
2022-10-31T06:55:47.092Z,12.80
2022-10-31T07:00:35.576Z,12.32
2022-10-31T07:05:20.575Z,13.23
2022-10-31T07:10:07.179Z,13.93
2022-10-31T07:14:52.239Z,13.15
2022-10-31T07:19:40.173Z,13.70
2022-10-31T07:24:25.185Z,13.55
2022-10-31T07:29:10.596Z,13.43
2022-10-31T07:33:55.604Z,12.77
2022-10-31T07:38:43.498Z,13.15
2022-10-31T07:43:28.652Z,13.55
2022-10-31T07:48:13.894Z,13.18
2022-10-31T07:53:06.347Z,13.73
2022-10-31T07:58:03.334Z,12.95
2022-10-31T08:02:48.533Z,14.40
2022-10-31T08:07:34.040Z,14.52
2022-10-31T08:12:19.018Z,14.55
2022-10-31T08:17:06.935Z,14.30
2022-10-31T08:21:56.055Z,13.43
2022-10-31T08:26:41.767Z,14.32
2022-10-31T08:31:33.326Z,14.05
2022-10-31T08:36:21.851Z,14.23
2022-10-31T08:41:06.838Z,15.07
2022-10-31T08:45:55.574Z,13.82
2022-10-31T08:50:41.267Z,14.02
2022-10-31T08:55:29.115Z,14.50
2022-10-31T09:00:15.191Z,14.13
2022-10-31T09:05:00.463Z,12.75
2022-10-31T09:09:45.448Z,13.20
2022-10-31T09:14:33.341Z,13.32
2022-10-31T09:19:18.324Z,12.80
2022-10-31T09:24:03.604Z,12.65
2022-10-31T09:28:48.726Z,12.63
2022-10-31T09:33:36.580Z,12.23
2022-10-31T09:38:24.461Z,12.43
2022-10-31T09:43:18.938Z,12.73
2022-10-31T09:48:18.980Z,12.40
2022-10-31T09:53:13.134Z,12.32
2022-10-31T09:57:58.598Z,12.32
2022-10-31T10:02:49.101Z,12.32
2022-10-31T10:07:50.572Z,12.20
2022-10-31T10:12:52.588Z,12.15
2022-10-31T10:22:34.535Z,11.50
2022-10-31T10:27:27.866Z,10.98
2022-10-31T10:32:23.539Z,11.98
2022-10-31T10:37:24.991Z,11.30
2022-10-31T10:42:28.576Z,12.65
2022-10-31T10:47:29.027Z,11.38
2022-10-31T10:52:50.262Z,12.48
2022-10-31T10:57:47.733Z,11.30
2022-10-31T11:02:37.184Z,11.50
2022-10-31T11:07:22.811Z,12.02
2022-10-31T11:12:12.771Z,11.57
2022-10-31T11:17:12.324Z,11.60
2022-10-31T11:22:10.389Z,11.52
2022-10-31T11:26:55.880Z,11.35
2022-10-31T11:31:41.269Z,11.63
2022-10-31T11:36:29.103Z,12.63
2022-10-31T11:41:20.681Z,11.38
2022-10-31T11:46:13.607Z,10.45
2022-10-31T11:51:01.057Z,9.77
2022-10-31T11:55:46.126Z,10.63
2022-10-31T12:00:36.691Z,10.65
2022-10-31T12:05:26.190Z,10.15
2022-10-31T12:10:17.566Z,10.07
2022-10-31T12:15:20.434Z,10.00
2022-10-31T12:20:21.039Z,10.18
2022-10-31T12:25:25.840Z,9.25
2022-10-31T12:30:24.009Z,10.77
2022-10-31T12:35:41.246Z,10.73
2022-10-31T12:40:44.955Z,10.27
2022-10-31T12:45:44.499Z,11.43
2022-10-31T12:50:38.973Z,9.43
2022-10-31T12:55:52.355Z,9.25
2022-10-31T13:00:42.088Z,9.18
2022-10-31T13:05:34.958Z,8.75
2022-10-31T13:10:25.076Z,9.65
2022-10-31T13:15:20.418Z,9.15
2022-10-31T13:20:23.593Z,9.10
2022-10-31T13:25:17.747Z,8.68
2022-10-31T13:30:06.832Z,8.77
2022-10-31T13:34:57.915Z,8.82
2022-10-31T13:39:54.438Z,7.95
2022-10-31T13:44:41.275Z,8.35
2022-10-31T13:49:44.306Z,7.43
2022-10-31T13:54:37.188Z,8.82
2022-10-31T13:59:25.126Z,8.55
2022-10-31T14:04:24.703Z,7.28
2022-10-31T14:09:23.399Z,6.75
2022-10-31T14:14:15.665Z,6.72
2022-10-31T14:19:05.430Z,7.20
2022-10-31T14:23:52.497Z,7.28
2022-10-31T14:28:39.919Z,7.38
2022-10-31T14:33:30.692Z,8.13
2022-10-31T14:38:41.040Z,7.00
2022-10-31T14:43:46.648Z,6.93
2022-10-31T14:49:01.394Z,7.15
2022-10-31T14:53:52.383Z,6.70
2022-10-31T14:58:43.937Z,7.30
2022-10-31T15:08:30.678Z,6.97
2022-10-31T15:13:23.752Z,6.72
2022-10-31T15:18:09.719Z,6.95
2022-10-31T15:22:55.090Z,6.63
2022-10-31T15:27:44.149Z,6.43
2022-10-31T15:32:33.091Z,6.45
2022-10-31T15:37:19.614Z,6.50
2022-10-31T15:42:05.143Z,6.75
2022-10-31T15:46:57.086Z,6.25
2022-10-31T15:51:46.457Z,6.60
2022-10-31T15:56:36.361Z,6.80
2022-10-31T16:01:29.873Z,6.97
2022-10-31T16:06:24.455Z,7.80
2022-10-31T16:11:28.200Z,7.65
2022-10-31T16:21:29.424Z,7.65
2022-10-31T16:26:20.996Z,7.70
2022-10-31T16:31:19.960Z,8.80
2022-10-31T16:36:30.116Z,8.85
2022-10-31T16:41:11.550Z,7.88
2022-10-31T16:45:56.584Z,8.68
2022-10-31T16:50:45.627Z,11.63
2022-10-31T16:55:30.655Z,8.60
2022-10-31T17:00:22.239Z,8.50
2022-10-31T17:05:08.407Z,8.07
2022-10-31T17:09:56.319Z,8.25
2022-10-31T17:14:41.309Z,7.97
2022-10-31T17:19:26.564Z,8.75
2022-10-31T17:24:15.452Z,8.68
2022-10-31T17:29:03.812Z,9.23
2022-10-31T17:33:48.846Z,9.35
2022-10-31T17:38:34.135Z,9.55
2022-10-31T17:43:19.128Z,8.95
2022-10-31T17:48:07.255Z,8.65
2022-10-31T17:52:52.541Z,8.38
2022-10-31T17:57:38.638Z,6.80
2022-10-31T18:02:24.063Z,5.53
2022-10-31T18:07:12.092Z,4.30
2022-10-31T18:11:57.317Z,3.92
2022-10-31T18:16:42.626Z,3.60
2022-10-31T18:21:27.813Z,3.47
2022-10-31T18:26:15.778Z,3.47
2022-10-31T18:31:02.350Z,2.50
2022-10-31T18:35:47.631Z,1.90
2022-10-31T18:40:32.648Z,1.70
2022-10-31T18:45:33.934Z,1.67
2022-10-31T18:50:26.428Z,1.58
2022-10-31T18:55:12.331Z,2.35
2022-10-31T18:59:57.654Z,2.00
2022-10-31T19:04:45.283Z,2.60
2022-10-31T19:09:31.117Z,1.73
2022-10-31T19:14:16.973Z,3.63
2022-10-31T19:19:02.939Z,3.08
2022-10-31T19:23:50.626Z,2.55
2022-10-31T19:28:37.515Z,2.72
2022-10-31T19:33:22.464Z,5.25
2022-10-31T19:38:07.726Z,3.65
2022-10-31T19:42:55.282Z,2.45
2022-10-31T19:47:40.534Z,2.83
2022-10-31T19:52:25.560Z,2.97
2022-10-31T19:57:10.888Z,2.40
2022-10-31T20:01:58.543Z,3.20
2022-10-31T20:06:44.606Z,3.33
2022-10-31T20:11:31.036Z,3.20
2022-10-31T20:16:17.909Z,3.92
2022-10-31T20:21:10.526Z,3.85
2022-10-31T20:25:55.772Z,4.68
2022-10-31T20:30:40.809Z,3.80
2022-10-31T20:35:26.178Z,4.90
2022-10-31T20:40:14.433Z,5.50
2022-10-31T20:44:59.860Z,4.53
2022-10-31T20:49:44.831Z,4.70
2022-10-31T20:54:30.075Z,3.53
2022-10-31T20:59:19.519Z,4.20
2022-10-31T21:04:05.370Z,4.07
2022-10-31T21:08:50.846Z,2.80
2022-10-31T21:13:40.775Z,3.10
2022-10-31T21:18:28.759Z,2.78
2022-10-31T21:23:15.904Z,2.78
2022-10-31T21:28:01.234Z,3.60
2022-10-31T21:32:46.825Z,3.25
2022-10-31T21:37:34.618Z,3.38
2022-10-31T21:42:21.556Z,3.15
2022-10-31T21:47:06.808Z,3.00
2022-10-31T21:51:52.103Z,2.53
2022-10-31T21:56:40.430Z,3.38
2022-10-31T22:01:27.894Z,3.00
2022-10-31T22:06:14.705Z,2.80
2022-10-31T22:11:00.006Z,2.95
2022-10-31T22:15:47.640Z,3.08
2022-10-31T22:20:33.597Z,3.22
2022-10-31T22:25:18.806Z,4.65
2022-10-31T22:30:04.091Z,4.20
2022-10-31T22:34:51.748Z,3.20
2022-10-31T22:39:37.016Z,3.35
2022-10-31T22:44:22.054Z,4.20
2022-10-31T22:49:09.687Z,3.50
2022-10-31T22:53:58.146Z,3.50
2022-10-31T22:58:43.631Z,3.30
2022-10-31T23:03:29.191Z,3.38
2022-10-31T23:08:14.720Z,3.00
2022-10-31T23:13:15.019Z,2.72
2022-10-31T23:18:00.924Z,3.00
2022-10-31T23:22:46.112Z,3.03
2022-10-31T23:27:31.437Z,2.95
2022-10-31T23:32:25.357Z,2.35
2022-10-31T23:37:11.580Z,2.50
2022-10-31T23:41:56.603Z,2.53
2022-10-31T23:46:41.878Z,2.53
2022-10-31T23:51:29.508Z,1.98
2022-10-31T23:56:14.857Z,2.70
